sensor_id;sensor_type;location;lat;lon;timestamp;P1;durP1;ratioP1;P2;durP2;ratioP2
76171;SDS011;64929;51.178;4.138;2022-11-30T00:00:33;7.00;;;3.90;;
76171;SDS011;64929;51.178;4.138;2022-11-30T00:02:59;13.05;;;4.22;;
76171;SDS011;64929;51.178;4.138;2022-11-30T00:05:25;12.25;;;3.80;;
76171;SDS011;64929;51.178;4.138;2022-11-30T00:07:51;16.35;;;4.38;;
76171;SDS011;64929;51.178;4.138;2022-11-30T00:10:18;7.55;;;3.05;;
76171;SDS011;64929;51.178;4.138;2022-11-30T00:12:45;8.93;;;3.15;;
76171;SDS011;64929;51.178;4.138;2022-11-30T00:15:11;13.20;;;3.30;;
76171;SDS011;64929;51.178;4.138;2022-11-30T00:17:42;5.93;;;3.08;;
76171;SDS011;64929;51.178;4.138;2022-11-30T00:20:08;7.35;;;2.88;;
76171;SDS011;64929;51.178;4.138;2022-11-30T00:22:35;10.02;;;3.75;;
76171;SDS011;64929;51.178;4.138;2022-11-30T00:25:01;12.70;;;3.85;;
76171;SDS011;64929;51.178;4.138;2022-11-30T00:27:29;6.53;;;3.72;;
76171;SDS011;64929;51.178;4.138;2022-11-30T00:29:55;8.30;;;2.97;;
76171;SDS011;64929;51.178;4.138;2022-11-30T00:32:21;11.25;;;4.13;;
76171;SDS011;64929;51.178;4.138;2022-11-30T00:34:47;7.65;;;2.97;;
76171;SDS011;64929;51.178;4.138;2022-11-30T00:37:13;13.40;;;4.28;;
76171;SDS011;64929;51.178;4.138;2022-11-30T00:39:39;15.57;;;4.10;;
76171;SDS011;64929;51.178;4.138;2022-11-30T00:42:04;8.73;;;4.00;;
76171;SDS011;64929;51.178;4.138;2022-11-30T00:44:30;9.65;;;3.95;;
76171;SDS011;64929;51.178;4.138;2022-11-30T00:46:56;6.30;;;3.10;;
76171;SDS011;64929;51.178;4.138;2022-11-30T00:49:21;8.23;;;2.83;;
76171;SDS011;64929;51.178;4.138;2022-11-30T00:51:47;5.07;;;3.40;;
76171;SDS011;64929;51.178;4.138;2022-11-30T00:54:13;6.25;;;3.08;;
76171;SDS011;64929;51.178;4.138;2022-11-30T00:56:38;7.55;;;2.90;;
76171;SDS011;64929;51.178;4.138;2022-11-30T00:59:04;7.65;;;3.30;;
76171;SDS011;64929;51.178;4.138;2022-11-30T01:01:30;11.07;;;3.72;;
76171;SDS011;64929;51.178;4.138;2022-11-30T01:03:56;6.78;;;3.65;;
76171;SDS011;64929;51.178;4.138;2022-11-30T01:06:22;8.80;;;2.63;;
76171;SDS011;64929;51.178;4.138;2022-11-30T01:08:48;6.75;;;3.05;;
76171;SDS011;64929;51.178;4.138;2022-11-30T01:11:15;12.90;;;3.40;;
76171;SDS011;64929;51.178;4.138;2022-11-30T01:13:43;8.10;;;3.33;;
76171;SDS011;64929;51.178;4.138;2022-11-30T01:16:10;7.60;;;3.15;;
76171;SDS011;64929;51.178;4.138;2022-11-30T01:18:39;10.88;;;3.15;;
76171;SDS011;64929;51.178;4.138;2022-11-30T01:21:06;7.65;;;3.50;;
76171;SDS011;64929;51.178;4.138;2022-11-30T01:23:33;9.13;;;3.25;;
76171;SDS011;64929;51.178;4.138;2022-11-30T01:25:59;12.95;;;4.85;;
76171;SDS011;64929;51.178;4.138;2022-11-30T01:28:24;8.55;;;4.22;;
76171;SDS011;64929;51.178;4.138;2022-11-30T01:30:57;12.75;;;5.05;;
76171;SDS011;64929;51.178;4.138;2022-11-30T01:33:23;8.23;;;3.17;;
76171;SDS011;64929;51.178;4.138;2022-11-30T01:35:56;10.13;;;3.78;;
76171;SDS011;64929;51.178;4.138;2022-11-30T01:38:29;11.07;;;3.40;;
76171;SDS011;64929;51.178;4.138;2022-11-30T01:41:00;8.63;;;3.63;;
76171;SDS011;64929;51.178;4.138;2022-11-30T01:43:42;10.32;;;3.55;;
76171;SDS011;64929;51.178;4.138;2022-11-30T01:48:50;10.73;;;3.78;;
76171;SDS011;64929;51.178;4.138;2022-11-30T01:51:21;8.52;;;3.40;;
76171;SDS011;64929;51.178;4.138;2022-11-30T01:53:47;14.25;;;3.97;;
76171;SDS011;64929;51.178;4.138;2022-11-30T01:56:12;12.13;;;4.93;;
76171;SDS011;64929;51.178;4.138;2022-11-30T01:58:38;11.77;;;3.45;;
76171;SDS011;64929;51.178;4.138;2022-11-30T02:01:04;24.80;;;4.65;;
76171;SDS011;64929;51.178;4.138;2022-11-30T02:06:32;15.65;;;3.53;;
76171;SDS011;64929;51.178;4.138;2022-11-30T02:08:58;9.55;;;4.53;;
76171;SDS011;64929;51.178;4.138;2022-11-30T02:11:25;11.68;;;3.95;;
76171;SDS011;64929;51.178;4.138;2022-11-30T02:14:04;9.40;;;3.45;;
76171;SDS011;64929;51.178;4.138;2022-11-30T02:17:02;15.48;;;4.07;;
76171;SDS011;64929;51.178;4.138;2022-11-30T02:19:55;10.25;;;3.85;;
76171;SDS011;64929;51.178;4.138;2022-11-30T02:25:02;9.00;;;3.67;;
76171;SDS011;64929;51.178;4.138;2022-11-30T02:30:18;9.23;;;2.83;;
76171;SDS011;64929;51.178;4.138;2022-11-30T02:32:46;17.67;;;5.95;;
76171;SDS011;64929;51.178;4.138;2022-11-30T02:35:16;8.25;;;4.38;;
76171;SDS011;64929;51.178;4.138;2022-11-30T02:37:45;14.97;;;4.57;;
76171;SDS011;64929;51.178;4.138;2022-11-30T02:40:12;12.30;;;3.17;;
76171;SDS011;64929;51.178;4.138;2022-11-30T02:42:41;9.90;;;3.78;;
76171;SDS011;64929;51.178;4.138;2022-11-30T02:45:07;9.48;;;3.67;;
76171;SDS011;64929;51.178;4.138;2022-11-30T02:47:44;9.60;;;3.63;;
76171;SDS011;64929;51.178;4.138;2022-11-30T02:50:14;12.97;;;5.20;;
76171;SDS011;64929;51.178;4.138;2022-11-30T02:52:45;15.35;;;5.25;;
76171;SDS011;64929;51.178;4.138;2022-11-30T02:55:13;12.68;;;3.65;;
76171;SDS011;64929;51.178;4.138;2022-11-30T03:00:07;15.63;;;4.72;;
76171;SDS011;64929;51.178;4.138;2022-11-30T03:02:37;13.52;;;5.45;;
76171;SDS011;64929;51.178;4.138;2022-11-30T03:05:04;19.70;;;5.10;;
76171;SDS011;64929;51.178;4.138;2022-11-30T03:07:31;18.65;;;5.38;;
76171;SDS011;64929;51.178;4.138;2022-11-30T03:09:59;14.82;;;4.50;;
76171;SDS011;64929;51.178;4.138;2022-11-30T03:12:25;15.32;;;4.03;;
76171;SDS011;64929;51.178;4.138;2022-11-30T03:14:53;16.70;;;4.55;;
76171;SDS011;64929;51.178;4.138;2022-11-30T03:17:18;13.77;;;4.85;;
76171;SDS011;64929;51.178;4.138;2022-11-30T03:19:44;19.85;;;4.90;;
76171;SDS011;64929;51.178;4.138;2022-11-30T03:22:09;9.18;;;4.43;;
76171;SDS011;64929;51.178;4.138;2022-11-30T03:24:35;13.25;;;3.72;;
76171;SDS011;64929;51.178;4.138;2022-11-30T03:27:01;16.05;;;4.45;;
76171;SDS011;64929;51.178;4.138;2022-11-30T03:29:26;20.65;;;4.63;;
76171;SDS011;64929;51.178;4.138;2022-11-30T03:31:52;15.38;;;4.80;;
76171;SDS011;64929;51.178;4.138;2022-11-30T03:34:18;17.95;;;4.20;;
76171;SDS011;64929;51.178;4.138;2022-11-30T03:36:43;15.32;;;4.93;;
76171;SDS011;64929;51.178;4.138;2022-11-30T03:39:09;8.98;;;3.60;;
76171;SDS011;64929;51.178;4.138;2022-11-30T03:41:35;10.30;;;4.68;;
76171;SDS011;64929;51.178;4.138;2022-11-30T03:44:01;15.50;;;4.57;;
76171;SDS011;64929;51.178;4.138;2022-11-30T03:46:26;10.10;;;4.05;;
76171;SDS011;64929;51.178;4.138;2022-11-30T03:48:52;17.73;;;5.22;;
76171;SDS011;64929;51.178;4.138;2022-11-30T03:51:18;11.57;;;3.83;;
76171;SDS011;64929;51.178;4.138;2022-11-30T03:53:44;14.18;;;4.78;;
76171;SDS011;64929;51.178;4.138;2022-11-30T03:56:10;14.85;;;4.30;;
76171;SDS011;64929;51.178;4.138;2022-11-30T03:58:36;11.60;;;4.63;;
76171;SDS011;64929;51.178;4.138;2022-11-30T04:01:06;16.67;;;4.65;;
76171;SDS011;64929;51.178;4.138;2022-11-30T04:03:32;12.45;;;3.63;;
76171;SDS011;64929;51.178;4.138;2022-11-30T04:05:58;12.90;;;4.35;;
76171;SDS011;64929;51.178;4.138;2022-11-30T04:08:24;15.60;;;4.63;;
76171;SDS011;64929;51.178;4.138;2022-11-30T04:10:51;11.23;;;5.05;;
76171;SDS011;64929;51.178;4.138;2022-11-30T04:13:18;11.60;;;4.35;;
76171;SDS011;64929;51.178;4.138;2022-11-30T04:15:46;12.65;;;4.35;;
76171;SDS011;64929;51.178;4.138;2022-11-30T04:18:12;9.70;;;4.70;;
76171;SDS011;64929;51.178;4.138;2022-11-30T04:20:39;14.45;;;4.57;;
76171;SDS011;64929;51.178;4.138;2022-11-30T04:23:05;12.65;;;5.63;;
76171;SDS011;64929;51.178;4.138;2022-11-30T04:25:30;11.23;;;3.65;;
76171;SDS011;64929;51.178;4.138;2022-11-30T04:27:56;15.68;;;5.32;;
76171;SDS011;64929;51.178;4.138;2022-11-30T04:30:22;12.68;;;4.20;;
76171;SDS011;64929;51.178;4.138;2022-11-30T04:32:48;13.23;;;4.38;;
76171;SDS011;64929;51.178;4.138;2022-11-30T04:35:13;11.68;;;3.80;;
76171;SDS011;64929;51.178;4.138;2022-11-30T04:37:39;10.98;;;3.67;;
76171;SDS011;64929;51.178;4.138;2022-11-30T04:40:05;12.73;;;4.15;;
76171;SDS011;64929;51.178;4.138;2022-11-30T04:42:31;9.05;;;3.67;;
76171;SDS011;64929;51.178;4.138;2022-11-30T04:44:57;9.85;;;4.13;;
76171;SDS011;64929;51.178;4.138;2022-11-30T04:47:25;19.75;;;4.60;;
76171;SDS011;64929;51.178;4.138;2022-11-30T04:49:52;11.35;;;3.80;;
76171;SDS011;64929;51.178;4.138;2022-11-30T04:52:18;10.05;;;3.28;;
76171;SDS011;64929;51.178;4.138;2022-11-30T04:54:43;14.80;;;4.05;;
76171;SDS011;64929;51.178;4.138;2022-11-30T04:57:09;11.15;;;4.13;;
76171;SDS011;64929;51.178;4.138;2022-11-30T04:59:35;8.05;;;3.42;;
76171;SDS011;64929;51.178;4.138;2022-11-30T05:02:01;11.38;;;4.38;;
76171;SDS011;64929;51.178;4.138;2022-11-30T05:04:26;10.65;;;4.10;;
76171;SDS011;64929;51.178;4.138;2022-11-30T05:06:52;11.38;;;3.38;;
76171;SDS011;64929;51.178;4.138;2022-11-30T05:09:18;13.00;;;4.05;;
76171;SDS011;64929;51.178;4.138;2022-11-30T05:11:43;12.57;;;4.30;;
76171;SDS011;64929;51.178;4.138;2022-11-30T05:14:11;17.02;;;3.67;;
76171;SDS011;64929;51.178;4.138;2022-11-30T05:16:36;12.30;;;4.32;;
76171;SDS011;64929;51.178;4.138;2022-11-30T05:19:02;13.95;;;4.57;;
76171;SDS011;64929;51.178;4.138;2022-11-30T05:21:28;24.33;;;4.72;;
76171;SDS011;64929;51.178;4.138;2022-11-30T05:23:53;15.88;;;4.10;;
76171;SDS011;64929;51.178;4.138;2022-11-30T05:26:19;10.48;;;4.05;;
76171;SDS011;64929;51.178;4.138;2022-11-30T05:28:44;19.00;;;4.63;;
76171;SDS011;64929;51.178;4.138;2022-11-30T05:31:10;11.88;;;3.83;;
76171;SDS011;64929;51.178;4.138;2022-11-30T05:33:36;11.18;;;3.33;;
76171;SDS011;64929;51.178;4.138;2022-11-30T05:36:01;7.30;;;3.65;;
76171;SDS011;64929;51.178;4.138;2022-11-30T05:38:27;8.48;;;4.28;;
76171;SDS011;64929;51.178;4.138;2022-11-30T05:40:59;12.73;;;3.50;;
76171;SDS011;64929;51.178;4.138;2022-11-30T05:43:25;7.97;;;3.10;;
76171;SDS011;64929;51.178;4.138;2022-11-30T05:45:51;8.93;;;2.90;;
76171;SDS011;64929;51.178;4.138;2022-11-30T05:48:22;7.00;;;3.33;;
76171;SDS011;64929;51.178;4.138;2022-11-30T05:50:48;13.85;;;3.47;;
76171;SDS011;64929;51.178;4.138;2022-11-30T05:53:14;8.65;;;4.25;;
76171;SDS011;64929;51.178;4.138;2022-11-30T05:55:39;9.93;;;2.95;;
76171;SDS011;64929;51.178;4.138;2022-11-30T05:58:06;9.90;;;3.10;;
76171;SDS011;64929;51.178;4.138;2022-11-30T06:00:31;7.68;;;2.67;;
76171;SDS011;64929;51.178;4.138;2022-11-30T06:02:57;6.50;;;3.20;;
76171;SDS011;64929;51.178;4.138;2022-11-30T06:05:23;8.77;;;3.58;;
76171;SDS011;64929;51.178;4.138;2022-11-30T06:07:49;16.40;;;3.85;;
76171;SDS011;64929;51.178;4.138;2022-11-30T06:10:15;7.65;;;3.95;;
76171;SDS011;64929;51.178;4.138;2022-11-30T06:12:41;11.25;;;4.18;;
76171;SDS011;64929;51.178;4.138;2022-11-30T06:15:06;9.95;;;2.97;;
76171;SDS011;64929;51.178;4.138;2022-11-30T06:17:32;7.97;;;2.33;;
76171;SDS011;64929;51.178;4.138;2022-11-30T06:19:58;19.63;;;3.95;;
76171;SDS011;64929;51.178;4.138;2022-11-30T06:22:24;10.20;;;2.85;;
76171;SDS011;64929;51.178;4.138;2022-11-30T06:24:49;7.22;;;3.65;;
76171;SDS011;64929;51.178;4.138;2022-11-30T06:27:15;9.82;;;3.35;;
76171;SDS011;64929;51.178;4.138;2022-11-30T06:29:41;12.23;;;3.42;;
76171;SDS011;64929;51.178;4.138;2022-11-30T06:32:06;7.53;;;2.97;;
76171;SDS011;64929;51.178;4.138;2022-11-30T06:34:32;9.90;;;3.78;;
76171;SDS011;64929;51.178;4.138;2022-11-30T06:36:58;6.28;;;3.10;;
76171;SDS011;64929;51.178;4.138;2022-11-30T06:39:23;4.80;;;3.03;;
76171;SDS011;64929;51.178;4.138;2022-11-30T06:41:49;7.30;;;2.97;;
76171;SDS011;64929;51.178;4.138;2022-11-30T06:44:14;6.28;;;3.10;;
76171;SDS011;64929;51.178;4.138;2022-11-30T06:46:40;5.30;;;2.92;;
76171;SDS011;64929;51.178;4.138;2022-11-30T06:49:06;5.65;;;3.05;;
76171;SDS011;64929;51.178;4.138;2022-11-30T06:51:40;6.93;;;3.22;;
76171;SDS011;64929;51.178;4.138;2022-11-30T06:56:53;9.88;;;4.93;;
76171;SDS011;64929;51.178;4.138;2022-11-30T06:59:20;10.90;;;2.72;;
76171;SDS011;64929;51.178;4.138;2022-11-30T07:01:46;7.72;;;3.28;;
76171;SDS011;64929;51.178;4.138;2022-11-30T07:04:11;7.07;;;3.35;;
76171;SDS011;64929;51.178;4.138;2022-11-30T07:06:37;5.20;;;3.05;;
76171;SDS011;64929;51.178;4.138;2022-11-30T07:09:03;7.95;;;3.40;;
76171;SDS011;64929;51.178;4.138;2022-11-30T07:11:28;7.75;;;2.63;;
76171;SDS011;64929;51.178;4.138;2022-11-30T07:13:55;6.75;;;2.90;;
76171;SDS011;64929;51.178;4.138;2022-11-30T07:16:21;6.57;;;3.40;;
76171;SDS011;64929;51.178;4.138;2022-11-30T07:18:47;10.63;;;2.88;;
76171;SDS011;64929;51.178;4.138;2022-11-30T07:21:12;5.63;;;3.03;;
76171;SDS011;64929;51.178;4.138;2022-11-30T07:23:38;20.65;;;3.25;;
76171;SDS011;64929;51.178;4.138;2022-11-30T07:26:23;5.22;;;2.65;;
76171;SDS011;64929;51.178;4.138;2022-11-30T07:28:49;8.80;;;3.13;;
76171;SDS011;64929;51.178;4.138;2022-11-30T07:31:25;13.98;;;3.10;;
76171;SDS011;64929;51.178;4.138;2022-11-30T07:33:53;5.95;;;2.60;;
76171;SDS011;64929;51.178;4.138;2022-11-30T07:36:20;7.88;;;3.33;;
76171;SDS011;64929;51.178;4.138;2022-11-30T07:38:46;12.75;;;3.40;;
76171;SDS011;64929;51.178;4.138;2022-11-30T07:41:12;6.35;;;2.90;;
76171;SDS011;64929;51.178;4.138;2022-11-30T07:43:38;6.90;;;3.00;;
76171;SDS011;64929;51.178;4.138;2022-11-30T07:46:05;5.45;;;2.95;;
76171;SDS011;64929;51.178;4.138;2022-11-30T07:48:31;7.60;;;3.47;;
76171;SDS011;64929;51.178;4.138;2022-11-30T07:51:04;5.78;;;2.72;;
76171;SDS011;64929;51.178;4.138;2022-11-30T07:53:32;14.18;;;4.40;;
76171;SDS011;64929;51.178;4.138;2022-11-30T07:56:04;11.25;;;2.97;;
76171;SDS011;64929;51.178;4.138;2022-11-30T07:58:31;7.97;;;2.95;;
76171;SDS011;64929;51.178;4.138;2022-11-30T08:01:03;6.32;;;2.83;;
76171;SDS011;64929;51.178;4.138;2022-11-30T08:03:34;7.10;;;3.28;;
76171;SDS011;64929;51.178;4.138;2022-11-30T08:06:01;6.03;;;2.78;;
76171;SDS011;64929;51.178;4.138;2022-11-30T08:08:32;5.20;;;3.28;;
76171;SDS011;64929;51.178;4.138;2022-11-30T08:10:59;6.93;;;3.50;;
76171;SDS011;64929;51.178;4.138;2022-11-30T08:13:25;9.05;;;3.63;;
76171;SDS011;64929;51.178;4.138;2022-11-30T08:15:52;17.80;;;3.85;;
76171;SDS011;64929;51.178;4.138;2022-11-30T08:18:18;15.65;;;4.88;;
76171;SDS011;64929;51.178;4.138;2022-11-30T08:20:43;5.20;;;3.20;;
76171;SDS011;64929;51.178;4.138;2022-11-30T08:23:12;16.45;;;3.95;;
76171;SDS011;64929;51.178;4.138;2022-11-30T08:25:38;10.98;;;3.38;;
76171;SDS011;64929;51.178;4.138;2022-11-30T08:28:04;8.07;;;3.15;;
76171;SDS011;64929;51.178;4.138;2022-11-30T08:30:30;8.38;;;3.45;;
76171;SDS011;64929;51.178;4.138;2022-11-30T08:32:55;7.20;;;3.38;;
76171;SDS011;64929;51.178;4.138;2022-11-30T08:35:21;5.55;;;3.53;;
76171;SDS011;64929;51.178;4.138;2022-11-30T08:37:47;8.70;;;3.70;;
76171;SDS011;64929;51.178;4.138;2022-11-30T08:40:13;8.65;;;3.33;;
76171;SDS011;64929;51.178;4.138;2022-11-30T08:42:38;10.25;;;3.30;;
76171;SDS011;64929;51.178;4.138;2022-11-30T08:45:04;9.80;;;3.72;;
76171;SDS011;64929;51.178;4.138;2022-11-30T08:47:30;8.80;;;3.97;;
76171;SDS011;64929;51.178;4.138;2022-11-30T08:49:56;14.52;;;4.72;;
76171;SDS011;64929;51.178;4.138;2022-11-30T08:52:22;9.48;;;3.72;;
76171;SDS011;64929;51.178;4.138;2022-11-30T08:54:48;10.23;;;4.18;;
76171;SDS011;64929;51.178;4.138;2022-11-30T08:57:15;11.60;;;4.05;;
76171;SDS011;64929;51.178;4.138;2022-11-30T08:59:42;9.05;;;4.18;;
76171;SDS011;64929;51.178;4.138;2022-11-30T09:02:12;10.88;;;4.80;;
76171;SDS011;64929;51.178;4.138;2022-11-30T09:04:41;10.10;;;4.07;;
76171;SDS011;64929;51.178;4.138;2022-11-30T09:07:07;9.23;;;4.22;;
76171;SDS011;64929;51.178;4.138;2022-11-30T09:09:33;10.32;;;3.78;;
76171;SDS011;64929;51.178;4.138;2022-11-30T09:12:00;14.93;;;3.33;;
76171;SDS011;64929;51.178;4.138;2022-11-30T09:14:25;12.90;;;4.85;;
76171;SDS011;64929;51.178;4.138;2022-11-30T09:16:52;11.80;;;4.22;;
76171;SDS011;64929;51.178;4.138;2022-11-30T09:19:18;10.05;;;4.47;;
76171;SDS011;64929;51.178;4.138;2022-11-30T09:21:44;15.93;;;4.85;;
76171;SDS011;64929;51.178;4.138;2022-11-30T09:24:10;11.30;;;4.78;;
76171;SDS011;64929;51.178;4.138;2022-11-30T09:26:35;14.15;;;4.45;;
76171;SDS011;64929;51.178;4.138;2022-11-30T09:29:01;13.50;;;5.28;;
76171;SDS011;64929;51.178;4.138;2022-11-30T09:31:28;10.90;;;4.90;;
76171;SDS011;64929;51.178;4.138;2022-11-30T09:33:54;12.38;;;4.32;;
76171;SDS011;64929;51.178;4.138;2022-11-30T09:36:21;16.67;;;5.88;;
76171;SDS011;64929;51.178;4.138;2022-11-30T09:38:51;13.30;;;5.38;;
76171;SDS011;64929;51.178;4.138;2022-11-30T09:46:35;10.35;;;4.22;;
76171;SDS011;64929;51.178;4.138;2022-11-30T09:49:20;12.80;;;5.68;;
76171;SDS011;64929;51.178;4.138;2022-11-30T09:51:54;13.32;;;5.03;;
76171;SDS011;64929;51.178;4.138;2022-11-30T09:54:27;12.13;;;5.05;;
76171;SDS011;64929;51.178;4.138;2022-11-30T09:57:01;9.10;;;4.75;;
76171;SDS011;64929;51.178;4.138;2022-11-30T09:59:36;12.80;;;5.80;;
76171;SDS011;64929;51.178;4.138;2022-11-30T10:02:09;16.85;;;5.93;;
76171;SDS011;64929;51.178;4.138;2022-11-30T10:04:39;11.20;;;4.28;;
76171;SDS011;64929;51.178;4.138;2022-11-30T10:12:45;13.10;;;4.85;;
76171;SDS011;64929;51.178;4.138;2022-11-30T10:15:30;14.00;;;4.78;;
76171;SDS011;64929;51.178;4.138;2022-11-30T10:20:58;10.77;;;3.78;;
76171;SDS011;64929;51.178;4.138;2022-11-30T10:24:23;9.20;;;4.07;;
76171;SDS011;64929;51.178;4.138;2022-11-30T10:26:36;11.48;;;4.68;;
76171;SDS011;64929;51.178;4.138;2022-11-30T10:29:16;14.45;;;5.65;;
76171;SDS011;64929;51.178;4.138;2022-11-30T10:31:44;14.23;;;4.93;;
76171;SDS011;64929;51.178;4.138;2022-11-30T10:34:22;23.83;;;6.25;;
76171;SDS011;64929;51.178;4.138;2022-11-30T10:36:54;14.77;;;5.68;;
76171;SDS011;64929;51.178;4.138;2022-11-30T10:39:42;15.02;;;5.35;;
76171;SDS011;64929;51.178;4.138;2022-11-30T10:42:35;19.77;;;5.72;;
76171;SDS011;64929;51.178;4.138;2022-11-30T10:45:13;14.98;;;6.30;;
76171;SDS011;64929;51.178;4.138;2022-11-30T10:47:43;16.20;;;6.35;;
76171;SDS011;64929;51.178;4.138;2022-11-30T10:50:14;17.50;;;8.27;;
76171;SDS011;64929;51.178;4.138;2022-11-30T10:52:45;16.90;;;7.05;;
76171;SDS011;64929;51.178;4.138;2022-11-30T10:55:22;18.08;;;7.85;;
76171;SDS011;64929;51.178;4.138;2022-11-30T10:57:53;22.42;;;7.22;;
76171;SDS011;64929;51.178;4.138;2022-11-30T11:00:23;18.65;;;7.55;;
76171;SDS011;64929;51.178;4.138;2022-11-30T11:02:49;16.17;;;6.70;;
76171;SDS011;64929;51.178;4.138;2022-11-30T11:10:18;21.48;;;7.90;;
76171;SDS011;64929;51.178;4.138;2022-11-30T11:12:47;20.23;;;6.57;;
76171;SDS011;64929;51.178;4.138;2022-11-30T11:17:44;18.70;;;6.35;;
76171;SDS011;64929;51.178;4.138;2022-11-30T11:20:27;22.38;;;8.98;;
76171;SDS011;64929;51.178;4.138;2022-11-30T11:22:53;19.25;;;8.25;;
76171;SDS011;64929;51.178;4.138;2022-11-30T11:25:24;19.58;;;8.25;;
76171;SDS011;64929;51.178;4.138;2022-11-30T11:27:58;19.77;;;6.97;;
76171;SDS011;64929;51.178;4.138;2022-11-30T11:30:48;22.73;;;8.50;;
76171;SDS011;64929;51.178;4.138;2022-11-30T11:33:19;31.25;;;8.73;;
76171;SDS011;64929;51.178;4.138;2022-11-30T11:35:48;21.27;;;7.20;;
76171;SDS011;64929;51.178;4.138;2022-11-30T11:41:05;23.27;;;7.95;;
76171;SDS011;64929;51.178;4.138;2022-11-30T11:43:36;19.80;;;7.40;;
76171;SDS011;64929;51.178;4.138;2022-11-30T11:46:20;19.65;;;8.43;;
76171;SDS011;64929;51.178;4.138;2022-11-30T11:49:17;22.25;;;8.35;;
76171;SDS011;64929;51.178;4.138;2022-11-30T11:51:43;21.27;;;7.45;;
76171;SDS011;64929;51.178;4.138;2022-11-30T11:56:55;28.33;;;9.10;;
76171;SDS011;64929;51.178;4.138;2022-11-30T11:59:42;22.25;;;8.32;;
76171;SDS011;64929;51.178;4.138;2022-11-30T12:04:58;20.70;;;7.32;;
76171;SDS011;64929;51.178;4.138;2022-11-30T12:07:34;20.60;;;7.88;;
76171;SDS011;64929;51.178;4.138;2022-11-30T12:12:45;23.00;;;8.55;;
76171;SDS011;64929;51.178;4.138;2022-11-30T12:15:10;29.85;;;9.40;;
76171;SDS011;64929;51.178;4.138;2022-11-30T12:20:26;22.02;;;8.77;;
76171;SDS011;64929;51.178;4.138;2022-11-30T12:25:48;23.90;;;9.02;;
76171;SDS011;64929;51.178;4.138;2022-11-30T12:31:11;22.35;;;9.38;;
76171;SDS011;64929;51.178;4.138;2022-11-30T12:39:17;19.50;;;8.13;;
76171;SDS011;64929;51.178;4.138;2022-11-30T12:42:17;24.85;;;9.02;;
76171;SDS011;64929;51.178;4.138;2022-11-30T12:47:56;23.23;;;10.13;;
76171;SDS011;64929;51.178;4.138;2022-11-30T13:06:59;30.52;;;9.98;;
76171;SDS011;64929;51.178;4.138;2022-11-30T13:09:32;28.15;;;9.75;;
76171;SDS011;64929;51.178;4.138;2022-11-30T13:12:15;28.10;;;10.18;;
76171;SDS011;64929;51.178;4.138;2022-11-30T13:14:47;25.92;;;9.18;;
76171;SDS011;64929;51.178;4.138;2022-11-30T13:17:19;30.70;;;9.60;;
76171;SDS011;64929;51.178;4.138;2022-11-30T13:19:59;29.35;;;10.70;;
76171;SDS011;64929;51.178;4.138;2022-11-30T13:28:02;28.23;;;9.38;;
76171;SDS011;64929;51.178;4.138;2022-11-30T13:41:37;22.48;;;8.40;;
76171;SDS011;64929;51.178;4.138;2022-11-30T13:46:49;22.50;;;9.23;;
76171;SDS011;64929;51.178;4.138;2022-11-30T13:49:20;26.15;;;9.20;;
76171;SDS011;64929;51.178;4.138;2022-11-30T13:51:47;20.90;;;9.27;;
76171;SDS011;64929;51.178;4.138;2022-11-30T13:59:50;21.67;;;9.38;;
76171;SDS011;64929;51.178;4.138;2022-11-30T14:05:35;25.25;;;9.63;;
76171;SDS011;64929;51.178;4.138;2022-11-30T14:10:29;23.98;;;7.78;;
76171;SDS011;64929;51.178;4.138;2022-11-30T14:18:26;19.90;;;8.15;;
76171;SDS011;64929;51.178;4.138;2022-11-30T14:20:59;22.35;;;8.75;;
76171;SDS011;64929;51.178;4.138;2022-11-30T14:26:24;22.30;;;8.80;;
76171;SDS011;64929;51.178;4.138;2022-11-30T14:28:59;23.02;;;8.95;;
76171;SDS011;64929;51.178;4.138;2022-11-30T14:31:29;21.40;;;8.73;;
76171;SDS011;64929;51.178;4.138;2022-11-30T14:34:22;18.33;;;8.15;;
76171;SDS011;64929;51.178;4.138;2022-11-30T14:36:52;22.90;;;8.20;;
76171;SDS011;64929;51.178;4.138;2022-11-30T14:39:26;26.67;;;9.00;;
76171;SDS011;64929;51.178;4.138;2022-11-30T14:42:14;27.77;;;8.88;;
76171;SDS011;64929;51.178;4.138;2022-11-30T14:48:13;23.63;;;8.98;;
76171;SDS011;64929;51.178;4.138;2022-11-30T14:50:49;22.88;;;7.20;;
76171;SDS011;64929;51.178;4.138;2022-11-30T14:53:46;22.25;;;8.68;;
76171;SDS011;64929;51.178;4.138;2022-11-30T14:56:24;23.77;;;8.32;;
76171;SDS011;64929;51.178;4.138;2022-11-30T15:01:29;25.23;;;7.90;;
76171;SDS011;64929;51.178;4.138;2022-11-30T15:04:03;16.02;;;7.43;;
76171;SDS011;64929;51.178;4.138;2022-11-30T15:06:40;19.58;;;8.20;;
76171;SDS011;64929;51.178;4.138;2022-11-30T15:09:14;22.75;;;8.05;;
76171;SDS011;64929;51.178;4.138;2022-11-30T15:11:42;20.75;;;7.13;;
76171;SDS011;64929;51.178;4.138;2022-11-30T15:14:11;17.98;;;7.25;;
76171;SDS011;64929;51.178;4.138;2022-11-30T15:16:36;22.02;;;8.45;;
76171;SDS011;64929;51.178;4.138;2022-11-30T15:19:20;14.05;;;6.75;;
76171;SDS011;64929;51.178;4.138;2022-11-30T15:21:46;22.67;;;7.82;;
76171;SDS011;64929;51.178;4.138;2022-11-30T15:24:13;23.42;;;8.07;;
76171;SDS011;64929;51.178;4.138;2022-11-30T15:26:50;19.70;;;8.00;;
76171;SDS011;64929;51.178;4.138;2022-11-30T15:29:30;22.05;;;8.15;;
76171;SDS011;64929;51.178;4.138;2022-11-30T15:32:00;20.77;;;7.10;;
76171;SDS011;64929;51.178;4.138;2022-11-30T15:37:00;21.38;;;8.55;;
76171;SDS011;64929;51.178;4.138;2022-11-30T15:39:27;23.00;;;8.60;;
76171;SDS011;64929;51.178;4.138;2022-11-30T15:41:54;20.60;;;8.95;;
76171;SDS011;64929;51.178;4.138;2022-11-30T15:44:22;22.02;;;8.13;;
76171;SDS011;64929;51.178;4.138;2022-11-30T15:47:04;25.75;;;8.75;;
76171;SDS011;64929;51.178;4.138;2022-11-30T15:49:32;19.98;;;8.40;;
76171;SDS011;64929;51.178;4.138;2022-11-30T15:57:09;16.45;;;7.28;;
76171;SDS011;64929;51.178;4.138;2022-11-30T15:59:35;19.65;;;8.52;;
76171;SDS011;64929;51.178;4.138;2022-11-30T16:02:01;20.83;;;7.78;;
76171;SDS011;64929;51.178;4.138;2022-11-30T16:08:12;19.08;;;7.15;;
76171;SDS011;64929;51.178;4.138;2022-11-30T16:12:51;24.58;;;8.95;;
76171;SDS011;64929;51.178;4.138;2022-11-30T16:15:20;14.95;;;7.60;;
76171;SDS011;64929;51.178;4.138;2022-11-30T16:17:51;21.23;;;8.75;;
76171;SDS011;64929;51.178;4.138;2022-11-30T16:20:19;24.48;;;7.82;;
76171;SDS011;64929;51.178;4.138;2022-11-30T16:22:45;19.75;;;8.30;;
76171;SDS011;64929;51.178;4.138;2022-11-30T16:25:21;21.10;;;8.52;;
76171;SDS011;64929;51.178;4.138;2022-11-30T16:27:48;21.67;;;7.63;;
76171;SDS011;64929;51.178;4.138;2022-11-30T16:30:16;21.15;;;8.27;;
76171;SDS011;64929;51.178;4.138;2022-11-30T16:32:44;25.80;;;9.00;;
76171;SDS011;64929;51.178;4.138;2022-11-30T16:37:47;22.65;;;7.15;;
76171;SDS011;64929;51.178;4.138;2022-11-30T16:40:13;18.50;;;7.32;;
76171;SDS011;64929;51.178;4.138;2022-11-30T16:42:39;24.60;;;7.90;;
76171;SDS011;64929;51.178;4.138;2022-11-30T16:45:09;21.35;;;9.60;;
76171;SDS011;64929;51.178;4.138;2022-11-30T16:47:38;22.35;;;7.28;;
76171;SDS011;64929;51.178;4.138;2022-11-30T16:50:04;30.35;;;8.75;;
76171;SDS011;64929;51.178;4.138;2022-11-30T16:52:30;26.02;;;8.68;;
76171;SDS011;64929;51.178;4.138;2022-11-30T16:54:55;28.23;;;9.90;;
76171;SDS011;64929;51.178;4.138;2022-11-30T16:57:21;30.58;;;10.30;;
76171;SDS011;64929;51.178;4.138;2022-11-30T16:59:47;23.48;;;8.02;;
76171;SDS011;64929;51.178;4.138;2022-11-30T17:02:14;26.48;;;9.00;;
76171;SDS011;64929;51.178;4.138;2022-11-30T17:04:46;24.95;;;9.00;;
76171;SDS011;64929;51.178;4.138;2022-11-30T17:07:11;18.90;;;9.20;;
76171;SDS011;64929;51.178;4.138;2022-11-30T17:09:37;29.92;;;8.95;;
76171;SDS011;64929;51.178;4.138;2022-11-30T17:12:03;32.67;;;8.55;;